createdAt,value
2022-08-28T00:00:14.798Z,20.84
2022-08-28T00:03:02.747Z,20.84
2022-08-28T00:05:32.111Z,20.83
2022-08-28T00:08:00.780Z,20.81
2022-08-28T00:10:30.165Z,20.77
2022-08-28T00:12:58.599Z,20.73
2022-08-28T00:15:35.437Z,20.70
2022-08-28T00:18:05.352Z,20.68
2022-08-28T00:20:34.643Z,20.67
2022-08-28T00:23:02.524Z,20.66
2022-08-28T00:25:30.696Z,20.66
2022-08-28T00:28:08.531Z,20.66
2022-08-28T00:30:41.765Z,20.65
2022-08-28T00:33:18.361Z,20.64
2022-08-28T00:35:47.850Z,20.63
2022-08-28T00:38:19.221Z,20.63
2022-08-28T00:40:51.405Z,20.63
2022-08-28T00:43:39.989Z,20.63
2022-08-28T00:46:18.476Z,20.62
2022-08-28T00:48:47.530Z,20.62
2022-08-28T00:51:35.678Z,20.62
2022-08-28T00:54:07.718Z,20.62
2022-08-28T00:56:39.811Z,20.63
2022-08-28T00:59:13.821Z,20.63
2022-08-28T01:01:43.353Z,20.62
2022-08-28T01:04:17.036Z,20.60
2022-08-28T01:06:53.387Z,20.58
2022-08-28T01:09:25.859Z,20.58
2022-08-28T01:11:57.838Z,20.58
2022-08-28T01:14:26.607Z,20.58
2022-08-28T01:16:56.129Z,20.57
2022-08-28T01:19:31.467Z,20.57
2022-08-28T01:22:20.593Z,20.56
2022-08-28T01:24:51.792Z,20.56
2022-08-28T01:27:19.570Z,20.54
2022-08-28T01:29:48.082Z,20.53
2022-08-28T01:32:37.635Z,20.50
2022-08-28T01:35:10.970Z,20.48
2022-08-28T01:37:38.570Z,20.47
2022-08-28T01:40:09.365Z,20.46
2022-08-28T01:42:39.194Z,20.44
2022-08-28T01:45:10.884Z,20.44
2022-08-28T01:47:39.243Z,20.42
2022-08-28T01:50:10.463Z,20.41
2022-08-28T01:52:40.318Z,20.40
2022-08-28T01:55:08.978Z,20.34
2022-08-28T01:57:44.568Z,20.31
2022-08-28T02:00:13.893Z,20.27
2022-08-28T02:02:41.690Z,20.25
2022-08-28T02:05:10.800Z,20.23
2022-08-28T02:07:38.823Z,20.19
2022-08-28T02:10:10.099Z,20.14
2022-08-28T02:12:38.792Z,20.11
2022-08-28T02:15:07.606Z,20.08
2022-08-28T02:17:35.210Z,20.06
2022-08-28T02:20:04.742Z,20.05
2022-08-28T02:22:32.439Z,20.05
2022-08-28T02:25:00.699Z,20.03
2022-08-28T02:27:28.460Z,19.99
2022-08-28T02:29:56.453Z,19.95
2022-08-28T02:32:25.607Z,19.92
2022-08-28T02:34:54.709Z,19.90
2022-08-28T02:37:24.438Z,19.88
2022-08-28T02:39:57.029Z,19.85
2022-08-28T02:42:26.191Z,19.83
2022-08-28T02:44:53.861Z,19.80
2022-08-28T02:47:21.510Z,19.77
2022-08-28T02:49:49.144Z,19.75
2022-08-28T02:52:19.013Z,19.74
2022-08-28T02:54:47.365Z,19.71
2022-08-28T02:57:15.120Z,19.66
2022-08-28T02:59:43.943Z,19.61
2022-08-28T03:02:11.622Z,19.58
2022-08-28T03:04:39.752Z,19.53
2022-08-28T03:07:09.265Z,19.49
2022-08-28T03:09:41.532Z,19.45
2022-08-28T03:12:10.625Z,19.39
2022-08-28T03:14:38.234Z,19.37
2022-08-28T03:17:07.383Z,19.34
2022-08-28T03:19:35.488Z,19.33
2022-08-28T03:22:03.297Z,19.34
2022-08-28T03:24:30.934Z,19.32
2022-08-28T03:27:01.713Z,19.31
2022-08-28T03:29:30.404Z,19.28
2022-08-28T03:31:58.015Z,19.24
2022-08-28T03:34:25.958Z,19.20
2022-08-28T03:36:53.583Z,19.16
2022-08-28T03:39:21.195Z,19.12
2022-08-28T03:41:48.884Z,19.09
2022-08-28T03:44:17.546Z,19.06
2022-08-28T03:46:45.167Z,19.02
2022-08-28T03:49:13.436Z,18.96
2022-08-28T03:51:41.653Z,18.91
2022-08-28T03:54:09.274Z,18.86
2022-08-28T03:56:36.867Z,18.82
2022-08-28T03:59:05.337Z,18.79
2022-08-28T04:01:33.653Z,18.73
2022-08-28T04:04:01.969Z,18.69
2022-08-28T04:06:29.991Z,18.65
2022-08-28T04:08:59.919Z,18.64
2022-08-28T04:11:28.815Z,18.62
2022-08-28T04:13:56.872Z,18.62
2022-08-28T04:16:24.537Z,18.65
2022-08-28T04:18:52.196Z,18.67
2022-08-28T04:21:28.816Z,18.68
2022-08-28T04:23:56.457Z,18.69
2022-08-28T04:26:25.794Z,18.71
2022-08-28T04:28:55.200Z,18.74
2022-08-28T04:31:32.128Z,18.78
2022-08-28T04:34:02.349Z,18.82
2022-08-28T04:36:30.542Z,18.84
2022-08-28T04:38:58.731Z,18.87
2022-08-28T04:41:27.620Z,18.92
2022-08-28T04:43:57.331Z,18.96
2022-08-28T04:46:25.303Z,19.02
2022-08-28T04:48:53.030Z,19.08
2022-08-28T04:51:20.898Z,19.15
2022-08-28T04:53:49.729Z,19.19
2022-08-28T04:56:18.204Z,19.25
2022-08-28T04:58:45.840Z,19.30
2022-08-28T05:01:18.669Z,19.35
2022-08-28T05:03:48.158Z,19.41
2022-08-28T05:06:16.580Z,19.47
2022-08-28T05:08:44.234Z,19.53
2022-08-28T05:11:32.900Z,19.60
2022-08-28T05:14:05.622Z,19.66
2022-08-28T05:16:39.597Z,19.72
2022-08-28T05:19:07.250Z,19.79
2022-08-28T05:21:35.217Z,19.85
2022-08-28T05:24:03.231Z,19.92
2022-08-28T05:26:31.001Z,19.99
2022-08-28T05:28:59.890Z,20.06
2022-08-28T05:31:30.011Z,20.14
2022-08-28T05:33:59.842Z,20.23
2022-08-28T05:36:32.883Z,20.31
2022-08-28T05:39:01.805Z,20.36
2022-08-28T05:41:31.274Z,20.39
2022-08-28T05:44:04.796Z,20.43
2022-08-28T05:46:32.420Z,20.50
2022-08-28T05:49:00.342Z,20.57
2022-08-28T05:51:28.564Z,20.63
2022-08-28T05:53:57.563Z,20.72
2022-08-28T05:56:29.808Z,20.79
2022-08-28T05:59:00.436Z,20.85
2022-08-28T06:01:32.186Z,20.93
2022-08-28T06:04:02.966Z,21.02
2022-08-28T06:06:34.283Z,21.09
2022-08-28T06:09:16.861Z,21.17
2022-08-28T06:11:46.453Z,21.25
2022-08-28T06:14:18.240Z,21.33
2022-08-28T06:16:49.062Z,21.39
2022-08-28T06:19:18.107Z,21.47
2022-08-28T06:21:51.341Z,21.55
2022-08-28T06:24:19.364Z,21.64
2022-08-28T06:26:46.976Z,21.71
2022-08-28T06:29:18.321Z,21.79
2022-08-28T06:31:54.720Z,21.86
2022-08-28T06:34:22.871Z,21.95
2022-08-28T06:36:53.985Z,22.01
2022-08-28T06:39:22.334Z,22.06
2022-08-28T06:41:50.367Z,22.13
2022-08-28T06:44:20.514Z,22.18
2022-08-28T06:46:51.277Z,22.27
2022-08-28T06:49:19.245Z,22.34
2022-08-28T06:51:47.072Z,22.43
2022-08-28T06:54:22.247Z,22.49
2022-08-28T06:56:52.123Z,22.58
2022-08-28T06:59:20.157Z,22.66
2022-08-28T07:01:48.000Z,22.74
2022-08-28T07:04:15.781Z,22.82
2022-08-28T07:06:54.215Z,22.91
2022-08-28T07:09:24.278Z,23.00
2022-08-28T07:11:52.552Z,23.07
2022-08-28T07:14:20.339Z,23.15
2022-08-28T07:16:47.968Z,23.24
2022-08-28T07:19:16.000Z,23.32
2022-08-28T07:21:45.467Z,23.42
2022-08-28T07:24:15.249Z,23.53
2022-08-28T07:26:44.588Z,23.63
2022-08-28T07:29:12.907Z,23.73
2022-08-28T07:31:43.957Z,23.83
2022-08-28T07:34:13.775Z,23.91
2022-08-28T07:36:41.824Z,23.99
2022-08-28T07:39:11.214Z,24.06
2022-08-28T07:41:42.388Z,24.18
2022-08-28T07:44:29.373Z,24.30
2022-08-28T07:47:00.429Z,24.41
2022-08-28T07:49:28.165Z,24.53
2022-08-28T07:51:55.801Z,24.66
2022-08-28T07:54:24.216Z,24.76
2022-08-28T07:56:52.533Z,24.84
2022-08-28T07:59:20.160Z,24.93
2022-08-28T08:01:50.543Z,25.01
2022-08-28T08:04:21.355Z,25.05
2022-08-28T08:06:54.390Z,25.13
2022-08-28T08:09:26.511Z,25.22
2022-08-28T08:11:56.506Z,25.30
2022-08-28T08:14:25.516Z,25.34
2022-08-28T08:16:53.577Z,25.38
2022-08-28T08:19:21.361Z,25.41
2022-08-28T08:21:53.194Z,25.49
2022-08-28T08:24:26.707Z,25.59
2022-08-28T08:26:59.901Z,25.64
2022-08-28T08:29:31.734Z,25.66
2022-08-28T08:32:05.740Z,25.74
2022-08-28T08:34:36.523Z,25.81
2022-08-28T08:37:05.795Z,25.85
2022-08-28T08:39:34.999Z,25.93
2022-08-28T08:42:06.852Z,26.04
2022-08-28T08:44:40.243Z,26.16
2022-08-28T08:47:26.491Z,26.25
2022-08-28T08:49:57.081Z,26.36
2022-08-28T08:52:31.062Z,26.46
2022-08-28T08:55:23.343Z,26.59
2022-08-28T08:57:59.432Z,26.62
2022-08-28T09:00:28.995Z,26.74
2022-08-28T09:03:04.919Z,26.88
2022-08-28T09:05:55.913Z,27.03
2022-08-28T09:08:48.808Z,27.19
2022-08-28T09:11:44.239Z,27.34
2022-08-28T09:14:32.878Z,27.50
2022-08-28T09:17:01.581Z,27.63
2022-08-28T09:19:29.870Z,27.72
2022-08-28T09:21:57.618Z,27.85
2022-08-28T09:24:28.967Z,27.97
2022-08-28T09:26:59.064Z,28.08
2022-08-28T09:29:37.300Z,28.16
2022-08-28T09:32:18.419Z,28.19
2022-08-28T09:35:06.285Z,28.19
2022-08-28T09:37:36.196Z,28.23
2022-08-28T09:40:25.290Z,28.29
2022-08-28T09:43:31.631Z,28.34
2022-08-28T09:46:04.552Z,28.42
2022-08-28T09:48:43.241Z,28.46
2022-08-28T09:51:14.488Z,28.46
2022-08-28T09:54:02.084Z,28.52
2022-08-28T09:56:36.076Z,28.56
2022-08-28T09:59:23.968Z,28.64
2022-08-28T10:02:10.553Z,28.75
2022-08-28T10:05:07.724Z,28.78
2022-08-28T10:07:57.738Z,28.84
2022-08-28T10:10:53.759Z,28.87
2022-08-28T10:13:40.124Z,28.94
2022-08-28T10:16:09.704Z,29.03
2022-08-28T10:18:48.603Z,29.08
2022-08-28T10:21:48.208Z,29.17
2022-08-28T10:24:47.989Z,29.26
2022-08-28T10:27:48.317Z,29.37
2022-08-28T10:30:21.613Z,29.53
2022-08-28T10:33:08.276Z,29.60
2022-08-28T10:36:07.835Z,29.63
2022-08-28T10:39:17.792Z,29.69
2022-08-28T10:41:54.047Z,29.72
2022-08-28T10:44:31.701Z,29.75
2022-08-28T10:47:00.339Z,29.75
2022-08-28T10:49:31.386Z,29.76
2022-08-28T10:52:18.075Z,29.79
2022-08-28T10:54:54.983Z,29.81
2022-08-28T10:57:44.522Z,29.87
2022-08-28T11:00:17.622Z,29.95
2022-08-28T11:02:49.972Z,30.06
2022-08-28T11:05:23.518Z,30.19
2022-08-28T11:07:56.382Z,30.31
2022-08-28T11:10:39.929Z,30.41
2022-08-28T11:13:10.287Z,30.43
2022-08-28T11:15:41.710Z,30.50
2022-08-28T11:18:19.101Z,30.51
2022-08-28T11:21:16.643Z,30.52
2022-08-28T11:23:55.968Z,30.66
2022-08-28T11:26:33.876Z,30.77
2022-08-28T11:29:04.102Z,30.80
2022-08-28T11:31:36.029Z,30.87
2022-08-28T11:34:05.574Z,31.00
2022-08-28T11:36:33.174Z,31.13
2022-08-28T11:39:20.824Z,31.25
2022-08-28T11:42:10.278Z,31.45
2022-08-28T11:44:44.758Z,31.70
2022-08-28T11:47:34.440Z,31.98
2022-08-28T11:50:30.748Z,32.22
2022-08-28T11:53:14.111Z,32.40
2022-08-28T11:55:47.640Z,32.48
2022-08-28T11:58:26.383Z,32.43
2022-08-28T12:01:04.359Z,32.31
2022-08-28T12:03:53.785Z,32.09
2022-08-28T12:06:52.817Z,31.79
2022-08-28T12:09:26.175Z,31.89
2022-08-28T12:11:57.466Z,31.77
2022-08-28T12:14:25.030Z,31.60
2022-08-28T12:16:58.709Z,31.50
2022-08-28T12:19:58.920Z,31.58
2022-08-28T12:22:43.845Z,31.85
2022-08-28T12:25:24.754Z,32.10
2022-08-28T12:27:53.791Z,32.71
2022-08-28T12:30:37.427Z,33.07
2022-08-28T12:33:20.504Z,32.96
2022-08-28T12:35:49.723Z,33.27
2022-08-28T12:38:21.900Z,33.79
2022-08-28T12:40:50.899Z,34.12
2022-08-28T12:43:32.241Z,34.35
2022-08-28T12:46:04.300Z,34.16
2022-08-28T12:48:50.724Z,33.66
2022-08-28T12:51:24.554Z,33.73
2022-08-28T12:53:55.450Z,33.98
2022-08-28T12:56:25.899Z,34.18
2022-08-28T12:58:53.501Z,34.45
2022-08-28T13:01:21.359Z,34.63
2022-08-28T13:03:52.323Z,34.79
2022-08-28T13:06:37.742Z,34.92
2022-08-28T13:09:17.016Z,35.22
2022-08-28T13:11:49.036Z,35.34
2022-08-28T13:14:36.782Z,35.50
2022-08-28T13:17:05.389Z,35.77
2022-08-28T13:19:34.881Z,35.90
2022-08-28T13:22:08.563Z,35.99
2022-08-28T13:24:39.086Z,35.98
2022-08-28T13:27:12.192Z,35.91
2022-08-28T13:29:57.160Z,35.98
2022-08-28T13:32:30.785Z,36.07
2022-08-28T13:35:21.407Z,36.05
2022-08-28T13:37:58.814Z,36.27
2022-08-28T13:40:57.567Z,36.48
2022-08-28T13:43:30.296Z,36.65
2022-08-28T13:45:58.126Z,36.73
2022-08-28T13:48:27.410Z,36.51
2022-08-28T13:51:05.137Z,36.46
2022-08-28T13:53:39.049Z,36.48
2022-08-28T13:56:07.311Z,36.46
2022-08-28T13:58:35.006Z,36.50
2022-08-28T14:01:02.825Z,36.59
2022-08-28T14:03:37.529Z,36.45
2022-08-28T14:06:11.460Z,36.51
2022-08-28T14:08:40.971Z,36.51
2022-08-28T14:11:11.867Z,36.58
2022-08-28T14:13:47.444Z,36.31
2022-08-28T14:16:25.294Z,35.84
2022-08-28T14:18:53.788Z,35.61
2022-08-28T14:21:24.336Z,35.44
2022-08-28T14:23:51.950Z,35.45
2022-08-28T14:26:19.537Z,35.63
2022-08-28T14:28:47.178Z,35.83
2022-08-28T14:31:15.502Z,35.87
2022-08-28T14:33:45.042Z,35.78
2022-08-28T14:36:16.210Z,35.92
2022-08-28T14:38:44.101Z,35.84
2022-08-28T14:41:12.302Z,35.53
2022-08-28T14:43:43.504Z,35.47
2022-08-28T14:46:16.781Z,35.39
2022-08-28T14:48:45.242Z,35.06
2022-08-28T14:51:14.371Z,34.76
2022-08-28T14:53:42.250Z,34.46
2022-08-28T14:56:10.765Z,34.28
2022-08-28T14:58:39.023Z,34.06
2022-08-28T15:01:07.084Z,33.90
2022-08-28T15:03:35.816Z,33.74
2022-08-28T15:06:09.278Z,33.56
2022-08-28T15:08:38.066Z,33.36
2022-08-28T15:11:14.207Z,33.34
2022-08-28T15:13:46.791Z,33.30
2022-08-28T15:16:29.310Z,33.39
2022-08-28T15:18:59.413Z,33.46
2022-08-28T15:21:32.505Z,33.35
2022-08-28T15:24:03.027Z,33.17
2022-08-28T15:26:31.592Z,32.95
2022-08-28T15:29:03.283Z,32.69
2022-08-28T15:31:33.580Z,32.43
2022-08-28T15:34:13.341Z,32.18
2022-08-28T15:36:43.902Z,31.99
2022-08-28T15:39:29.091Z,31.81
2022-08-28T15:41:57.993Z,31.57
2022-08-28T15:44:26.244Z,31.37
2022-08-28T15:46:56.649Z,31.19
2022-08-28T15:49:26.878Z,31.00
2022-08-28T15:51:54.595Z,30.86
2022-08-28T15:54:23.721Z,30.71
2022-08-28T15:56:53.869Z,30.55
2022-08-28T15:59:22.706Z,30.41
2022-08-28T16:01:53.225Z,30.24
2022-08-28T16:04:20.983Z,30.12
2022-08-28T16:06:48.773Z,30.05
2022-08-28T16:09:24.437Z,30.00
2022-08-28T16:11:52.086Z,29.91
2022-08-28T16:14:21.151Z,29.78
2022-08-28T16:16:50.823Z,29.64
2022-08-28T16:19:18.818Z,29.47
2022-08-28T16:21:46.448Z,29.34
2022-08-28T16:24:14.471Z,29.21
2022-08-28T16:26:42.273Z,29.10
2022-08-28T16:29:09.883Z,29.05
2022-08-28T16:31:37.832Z,28.96
2022-08-28T16:34:06.809Z,28.88
2022-08-28T16:36:38.509Z,28.83
2022-08-28T16:39:10.734Z,28.76
2022-08-28T16:41:39.015Z,28.67
2022-08-28T16:44:06.797Z,28.55
2022-08-28T16:46:34.601Z,28.47
2022-08-28T16:49:03.014Z,28.37
2022-08-28T16:51:30.845Z,28.29
2022-08-28T16:53:58.528Z,28.24
2022-08-28T16:56:26.709Z,28.20
2022-08-28T16:58:55.402Z,28.16
2022-08-28T17:01:24.631Z,28.12
2022-08-28T17:03:54.527Z,28.06
2022-08-28T17:06:29.238Z,28.01
2022-08-28T17:08:57.776Z,27.93
2022-08-28T17:11:26.853Z,27.89
2022-08-28T17:13:55.470Z,27.85
2022-08-28T17:16:26.020Z,27.80
2022-08-28T17:18:53.756Z,27.74
2022-08-28T17:21:37.503Z,27.70
2022-08-28T17:24:05.396Z,27.47
2022-08-28T17:26:33.159Z,27.05
2022-08-28T17:29:00.794Z,26.70
2022-08-28T17:31:28.552Z,26.43
2022-08-28T17:33:56.175Z,26.18
2022-08-28T17:36:33.177Z,25.93
2022-08-28T17:39:04.386Z,25.76
2022-08-28T17:41:33.406Z,25.68
2022-08-28T17:44:02.367Z,25.63
2022-08-28T17:46:34.088Z,25.58
2022-08-28T17:49:07.380Z,25.50
2022-08-28T17:51:43.213Z,25.35
2022-08-28T17:54:18.217Z,25.24
2022-08-28T17:56:46.325Z,25.15
2022-08-28T17:59:15.405Z,25.05
2022-08-28T18:01:44.884Z,24.96
2022-08-28T18:04:17.979Z,24.91
2022-08-28T18:06:51.595Z,24.88
2022-08-28T18:09:19.650Z,24.84
2022-08-28T18:11:47.287Z,24.79
2022-08-28T18:14:14.996Z,24.71
2022-08-28T18:16:43.080Z,24.64
2022-08-28T18:19:11.850Z,24.57
2022-08-28T18:21:41.034Z,24.48
2022-08-28T18:24:12.815Z,24.36
2022-08-28T18:26:41.262Z,24.20
2022-08-28T18:29:10.284Z,24.03
2022-08-28T18:31:38.015Z,23.93
2022-08-28T18:34:06.288Z,23.82
2022-08-28T18:36:39.803Z,23.76
2022-08-28T18:39:07.805Z,23.69
2022-08-28T18:41:43.234Z,23.65
2022-08-28T18:44:15.140Z,23.61
2022-08-28T18:46:44.412Z,23.60
2022-08-28T18:49:12.687Z,23.61
2022-08-28T18:51:43.326Z,23.58
2022-08-28T18:54:14.618Z,23.54
2022-08-28T18:56:45.683Z,23.50
2022-08-28T18:59:13.447Z,23.47
2022-08-28T19:01:42.049Z,23.43
2022-08-28T19:04:09.850Z,23.39
2022-08-28T19:06:38.044Z,23.38
2022-08-28T19:09:06.342Z,23.32
2022-08-28T19:11:35.738Z,23.30
2022-08-28T19:14:03.789Z,23.31
2022-08-28T19:16:32.190Z,23.27
2022-08-28T19:19:03.211Z,23.21
2022-08-28T19:21:32.221Z,23.15
2022-08-28T19:24:00.032Z,23.10
2022-08-28T19:26:27.709Z,23.07
2022-08-28T19:28:56.065Z,23.07
2022-08-28T19:31:26.544Z,23.09
2022-08-28T19:33:54.450Z,23.04
2022-08-28T19:36:22.593Z,22.99
2022-08-28T19:38:50.669Z,22.89
2022-08-28T19:41:18.640Z,22.80
2022-08-28T19:43:46.218Z,22.74
2022-08-28T19:46:19.665Z,22.62
2022-08-28T19:48:50.233Z,22.52
2022-08-28T19:51:22.863Z,22.40
2022-08-28T19:53:57.713Z,22.24
2022-08-28T19:56:32.307Z,22.08
2022-08-28T19:59:02.037Z,21.92
2022-08-28T20:01:36.560Z,21.76
2022-08-28T20:04:06.531Z,21.62
2022-08-28T20:06:35.691Z,21.56
2022-08-28T20:09:08.313Z,21.56
2022-08-28T20:11:41.994Z,21.62
2022-08-28T20:14:09.978Z,21.47
2022-08-28T20:16:40.420Z,21.16
2022-08-28T20:30:54.998Z,20.98
2022-08-28T20:33:22.742Z,20.79
2022-08-28T20:36:03.012Z,20.61
2022-08-28T20:38:32.235Z,20.49
2022-08-28T20:41:18.233Z,20.35
2022-08-28T20:43:47.178Z,20.25
2022-08-28T20:46:19.741Z,20.21
2022-08-28T20:48:47.621Z,20.19
2022-08-28T20:51:15.248Z,20.15
2022-08-28T20:53:42.886Z,20.09
2022-08-28T20:56:10.622Z,20.08
2022-08-28T20:58:38.386Z,20.06
2022-08-28T21:01:06.238Z,20.01
2022-08-28T21:03:34.072Z,19.95
2022-08-28T21:06:01.873Z,19.91
2022-08-28T21:08:29.473Z,19.89
2022-08-28T21:10:57.066Z,19.89
2022-08-28T21:13:24.764Z,19.90
2022-08-28T21:15:52.481Z,19.91
2022-08-28T21:18:20.102Z,19.93
2022-08-28T21:20:48.097Z,19.95
2022-08-28T21:23:15.748Z,19.99
2022-08-28T21:25:43.397Z,19.99
2022-08-28T21:28:11.050Z,19.94
2022-08-28T21:30:41.436Z,19.83
2022-08-28T21:33:09.195Z,19.77
2022-08-28T21:35:36.832Z,19.71
2022-08-28T21:38:05.090Z,19.66
2022-08-28T21:40:35.144Z,19.65
2022-08-28T21:43:02.916Z,19.65
2022-08-28T21:45:30.526Z,19.67
2022-08-28T21:47:58.474Z,19.67
2022-08-28T21:50:29.081Z,19.68
2022-08-28T21:52:56.779Z,19.68
2022-08-28T21:55:24.876Z,19.62
2022-08-28T21:57:52.460Z,19.57
2022-08-28T22:00:23.418Z,19.54
2022-08-28T22:02:51.366Z,19.51
2022-08-28T22:05:19.823Z,19.49
2022-08-28T22:07:48.132Z,19.46
2022-08-28T22:10:15.865Z,19.45
2022-08-28T22:12:43.511Z,19.40
2022-08-28T22:15:11.343Z,19.36
2022-08-28T22:17:38.952Z,19.32
2022-08-28T22:20:07.008Z,19.28
2022-08-28T22:22:50.662Z,19.28
2022-08-28T22:25:18.322Z,19.32
2022-08-28T22:27:45.906Z,19.35
2022-08-28T22:30:13.669Z,19.35
2022-08-28T22:32:41.298Z,19.35
2022-08-28T22:35:10.414Z,19.33
2022-08-28T22:37:38.104Z,19.27
2022-08-28T22:40:09.464Z,19.19
2022-08-28T22:42:41.542Z,19.16
2022-08-28T22:45:10.142Z,19.13
2022-08-28T22:47:38.444Z,19.11
2022-08-28T22:50:06.916Z,19.08
2022-08-28T22:52:34.733Z,19.10
2022-08-28T22:55:02.659Z,19.10
2022-08-28T22:57:34.429Z,19.05
2022-08-28T23:00:04.452Z,19.02
2022-08-28T23:02:32.654Z,18.99
2022-08-28T23:05:00.461Z,18.97
2022-08-28T23:07:28.216Z,18.96
2022-08-28T23:09:56.623Z,18.94
2022-08-28T23:12:24.607Z,18.95
2022-08-28T23:14:53.114Z,18.97
2022-08-28T23:17:20.730Z,18.99
2022-08-28T23:19:48.503Z,18.97
2022-08-28T23:22:17.703Z,18.94
2022-08-28T23:24:46.791Z,18.90
2022-08-28T23:27:35.275Z,18.89
2022-08-28T23:30:05.754Z,18.89
2022-08-28T23:32:34.072Z,18.88
2022-08-28T23:35:02.118Z,18.87
2022-08-28T23:37:36.978Z,18.90
2022-08-28T23:40:12.616Z,18.90
2022-08-28T23:42:41.283Z,18.91
2022-08-28T23:45:10.582Z,18.93
2022-08-28T23:47:40.406Z,18.96
2022-08-28T23:50:12.470Z,18.97
2022-08-28T23:52:40.285Z,18.98
2022-08-28T23:55:09.675Z,19.00
2022-08-28T23:57:38.537Z,19.02
